Time;durP1;ratioP1;P1;durP2;ratioP2;P2;SDS_P1;SDS_P2;PMS_P1;PMS_P2;Temp;Humidity;BMP_temperature;BMP_pressure;BME280_temperature;BME280_humidity;BME280_pressure;Samples;Min_cycle;Max_cycle;Signal;HPM_P1;HPM_P2
2024/01/12 00:00:22;;;;;;;41.83;23.05;;;;;;;;;;5079071;28;20054;-80
2024/01/12 00:03:07;;;;;;;41.47;21.63;;;;;;;;;;5086683;28;20031;-79
2024/01/12 00:05:52;;;;;;;40.92;23.15;;;;;;;;;;5079800;28;20156;-80
2024/01/12 00:08:38;;;;;;;41.53;20.73;;;;;;;;;;5101997;28;20028;-81
2024/01/12 00:11:23;;;;;;;39.47;21.30;;;;;;;;;;5093456;28;20382;-80
2024/01/12 00:14:08;;;;;;;42.58;21.98;;;;;;;;;;5070118;28;20430;-80
2024/01/12 00:16:54;;;;;;;43.30;23.42;;;;;;;;;;5083313;28;20103;-79
2024/01/12 00:19:39;;;;;;;39.42;20.73;;;;;;;;;;5080109;28;20016;-79
2024/01/12 00:22:24;;;;;;;47.20;24.13;;;;;;;;;;5089865;28;20020;-79
2024/01/12 00:25:09;;;;;;;42.78;22.50;;;;;;;;;;5091347;28;20044;-79
2024/01/12 00:27:54;;;;;;;45.08;23.60;;;;;;;;;;5088839;28;20346;-79
2024/01/12 00:30:40;;;;;;;42.95;22.27;;;;;;;;;;5105956;28;20089;-80
2024/01/12 00:33:25;;;;;;;43.95;20.42;;;;;;;;;;5076343;28;20023;-80
2024/01/12 00:36:10;;;;;;;50.20;22.67;;;;;;;;;;5097478;27;20030;-80
2024/01/12 00:38:56;;;;;;;46.97;22.90;;;;;;;;;;5101290;27;20039;-81
2024/01/12 00:41:41;;;;;;;43.53;23.20;;;;;;;;;;5087992;28;20023;-81
2024/01/12 00:44:27;;;;;;;44.75;21.38;;;;;;;;;;5079533;28;20020;-80
2024/01/12 00:47:12;;;;;;;46.55;22.15;;;;;;;;;;5082771;28;20027;-80
2024/01/12 00:49:57;;;;;;;45.40;22.95;;;;;;;;;;5091786;28;20036;-80
2024/01/12 00:52:42;;;;;;;44.85;22.45;;;;;;;;;;5091239;28;20115;-80
2024/01/12 00:55:28;;;;;;;43.72;23.23;;;;;;;;;;5091416;28;20076;-79
2024/01/12 00:58:13;;;;;;;41.03;21.70;;;;;;;;;;5085901;28;20063;-80
2024/01/12 01:00:58;;;;;;;46.15;24.48;;;;;;;;;;5072738;28;20051;-81
2024/01/12 01:03:43;;;;;;;52.38;22.40;;;;;;;;;;5090340;28;20088;-80
2024/01/12 01:06:29;;;;;;;43.97;21.52;;;;;;;;;;5095593;28;20101;-79
2024/01/12 01:09:14;;;;;;;49.85;22.83;;;;;;;;;;5091335;28;20027;-80
2024/01/12 01:12:00;;;;;;;38.33;20.55;;;;;;;;;;5089360;28;20059;-80
2024/01/12 01:14:45;;;;;;;44.72;22.27;;;;;;;;;;5083996;28;20492;-82
2024/01/12 01:17:30;;;;;;;43.42;21.10;;;;;;;;;;5087527;28;20124;-79
2024/01/12 01:20:16;;;;;;;42.10;21.00;;;;;;;;;;5090348;28;20024;-79
2024/01/12 01:23:04;;;;;;;42.35;21.30;;;;;;;;;;5095596;28;20104;-79
2024/01/12 01:25:50;;;;;;;41.65;20.33;;;;;;;;;;5085109;28;20020;-79
2024/01/12 01:28:35;;;;;;;44.10;22.95;;;;;;;;;;5092073;28;20252;-79
2024/01/12 01:31:20;;;;;;;46.92;21.80;;;;;;;;;;5080067;28;20090;-79
2024/01/12 01:34:05;;;;;;;40.10;21.38;;;;;;;;;;5093872;28;20020;-79
2024/01/12 01:36:50;;;;;;;39.60;19.25;;;;;;;;;;5091648;28;20039;-78
2024/01/12 01:39:36;;;;;;;43.63;21.60;;;;;;;;;;5085084;28;20115;-80
2024/01/12 01:42:21;;;;;;;46.50;22.33;;;;;;;;;;5082011;28;20080;-78
2024/01/12 01:45:06;;;;;;;42.08;21.38;;;;;;;;;;5085890;28;20032;-81
2024/01/12 01:47:52;;;;;;;39.60;20.25;;;;;;;;;;5082603;28;20059;-79
2024/01/12 01:50:37;;;;;;;42.47;20.45;;;;;;;;;;5074907;28;20015;-80
2024/01/12 01:53:22;;;;;;;41.22;19.88;;;;;;;;;;5091164;28;20027;-78
2024/01/12 01:56:09;;;;;;;42.63;19.73;;;;;;;;;;5087357;28;20077;-79
2024/01/12 01:58:55;;;;;;;43.78;22.50;;;;;;;;;;5080809;28;20039;-80
2024/01/12 02:01:40;;;;;;;46.42;22.77;;;;;;;;;;5105926;28;20106;-80
2024/01/12 02:04:25;;;;;;;40.58;20.10;;;;;;;;;;5106140;28;20077;-80
2024/01/12 02:07:10;;;;;;;37.33;19.48;;;;;;;;;;5089453;28;20032;-82
2024/01/12 02:09:56;;;;;;;43.85;22.20;;;;;;;;;;5090503;28;20023;-80
2024/01/12 02:12:41;;;;;;;47.80;20.38;;;;;;;;;;5085407;28;20104;-80
2024/01/12 02:15:27;;;;;;;42.08;19.13;;;;;;;;;;5072669;28;20115;-81
2024/01/12 02:18:12;;;;;;;41.05;22.70;;;;;;;;;;5081579;28;20038;-81
2024/01/12 02:20:57;;;;;;;40.22;20.42;;;;;;;;;;5075151;28;20441;-80
2024/01/12 02:23:43;;;;;;;40.95;20.60;;;;;;;;;;5090474;28;20051;-80
2024/01/12 02:26:28;;;;;;;43.63;20.90;;;;;;;;;;5083701;28;20031;-80
2024/01/12 02:29:13;;;;;;;41.17;21.35;;;;;;;;;;5076567;28;20378;-80
2024/01/12 02:31:59;;;;;;;46.08;22.13;;;;;;;;;;5085426;28;20063;-79
2024/01/12 02:34:44;;;;;;;44.88;20.90;;;;;;;;;;5095440;28;20031;-80
2024/01/12 02:37:29;;;;;;;43.67;21.45;;;;;;;;;;5076371;28;20076;-80
2024/01/12 02:40:14;;;;;;;38.00;21.30;;;;;;;;;;5084947;28;20035;-80
2024/01/12 02:43:00;;;;;;;38.72;21.58;;;;;;;;;;5088615;28;20055;-79
2024/01/12 02:45:46;;;;;;;38.50;20.27;;;;;;;;;;5090917;28;20474;-79
2024/01/12 02:48:31;;;;;;;39.35;19.92;;;;;;;;;;5091429;28;20027;-79
2024/01/12 02:51:16;;;;;;;36.97;19.90;;;;;;;;;;5089430;28;20038;-79
2024/01/12 02:54:01;;;;;;;46.30;20.23;;;;;;;;;;5082767;28;20032;-80
2024/01/12 02:56:47;;;;;;;40.22;21.92;;;;;;;;;;5090638;28;20042;-80
2024/01/12 02:59:32;;;;;;;40.92;19.67;;;;;;;;;;5100523;28;20830;-79
2024/01/12 03:02:17;;;;;;;45.92;20.25;;;;;;;;;;5105902;28;20059;-82
2024/01/12 03:05:02;;;;;;;42.53;20.52;;;;;;;;;;5093326;28;20032;-82
2024/01/12 03:07:48;;;;;;;45.10;22.85;;;;;;;;;;5081878;28;20020;-81
2024/01/12 03:10:33;;;;;;;47.35;21.23;;;;;;;;;;5088181;28;20483;-81
2024/01/12 03:13:18;;;;;;;39.28;19.02;;;;;;;;;;5085036;28;20107;-79
2024/01/12 03:16:04;;;;;;;41.88;22.15;;;;;;;;;;5108928;28;20032;-81
2024/01/12 03:18:49;;;;;;;40.20;19.95;;;;;;;;;;5092311;28;20031;-81
2024/01/12 03:21:35;;;;;;;40.17;22.38;;;;;;;;;;5084999;28;20118;-81
2024/01/12 03:24:20;;;;;;;42.10;19.15;;;;;;;;;;5075582;28;20042;-81
2024/01/12 03:27:05;;;;;;;44.53;19.20;;;;;;;;;;5078714;28;20031;-81
2024/01/12 03:29:51;;;;;;;40.88;21.10;;;;;;;;;;5086988;28;20063;-81
2024/01/12 03:32:36;;;;;;;36.33;20.48;;;;;;;;;;5086752;28;20122;-81
2024/01/12 03:35:21;;;;;;;35.85;20.30;;;;;;;;;;5083174;28;20020;-81
2024/01/12 03:38:06;;;;;;;39.22;20.70;;;;;;;;;;5080353;28;20035;-81
2024/01/12 03:40:52;;;;;;;38.22;19.27;;;;;;;;;;5102531;28;20055;-81
2024/01/12 03:43:35;;;;;;;39.60;20.50;;;;;;;;;;5110172;28;20038;-79
2024/01/12 03:46:19;;;;;;;33.78;18.63;;;;;;;;;;5113364;28;20046;-78
2024/01/12 03:49:03;;;;;;;44.30;20.88;;;;;;;;;;5119128;28;20027;-78
2024/01/12 03:51:53;;;;;;;42.30;20.27;;;;;;;;;;5111277;28;20063;-78
2024/01/12 03:54:37;;;;;;;43.20;21.33;;;;;;;;;;5110586;28;20060;-79
2024/01/12 03:57:23;;;;;;;39.05;19.60;;;;;;;;;;5089261;28;20047;-79
2024/01/12 04:00:08;;;;;;;46.90;22.30;;;;;;;;;;5095033;28;20151;-79
2024/01/12 04:02:54;;;;;;;39.10;19.73;;;;;;;;;;5095306;28;20012;-80
2024/01/12 04:05:39;;;;;;;40.33;20.73;;;;;;;;;;5095407;28;20023;-79
2024/01/12 04:08:25;;;;;;;38.22;20.15;;;;;;;;;;5085235;28;20439;-80
2024/01/12 04:11:19;;;;;;;40.15;19.30;;;;;;;;;;5090229;28;20503;-79
2024/01/12 04:14:04;;;;;;;40.38;19.88;;;;;;;;;;5099081;28;20098;-82
2024/01/12 04:16:50;;;;;;;43.00;19.50;;;;;;;;;;5088681;28;20088;-82
2024/01/12 04:19:35;;;;;;;40.97;20.27;;;;;;;;;;5098586;28;20474;-80
2024/01/12 04:22:20;;;;;;;41.88;20.58;;;;;;;;;;5092581;28;20042;-80
2024/01/12 04:25:06;;;;;;;46.50;22.08;;;;;;;;;;5081856;28;20035;-82
2024/01/12 04:27:51;;;;;;;41.65;20.92;;;;;;;;;;5077156;28;20500;-81
2024/01/12 04:30:36;;;;;;;41.55;20.48;;;;;;;;;;5079899;28;20035;-80
2024/01/12 04:33:21;;;;;;;39.05;20.63;;;;;;;;;;5083152;28;20145;-81
2024/01/12 04:36:07;;;;;;;37.90;17.90;;;;;;;;;;5086060;28;20034;-80
2024/01/12 04:38:52;;;;;;;36.70;19.25;;;;;;;;;;5089508;28;20031;-82
2024/01/12 04:41:37;;;;;;;41.72;21.92;;;;;;;;;;5084988;28;20042;-79
2024/01/12 04:44:22;;;;;;;44.53;22.05;;;;;;;;;;5084031;28;20065;-80
2024/01/12 04:47:09;;;;;;;37.50;20.10;;;;;;;;;;5096337;28;20385;-80
2024/01/12 04:49:54;;;;;;;39.00;19.83;;;;;;;;;;5082113;28;20026;-79
2024/01/12 04:52:39;;;;;;;40.40;21.15;;;;;;;;;;5083079;28;20024;-80
2024/01/12 04:55:25;;;;;;;44.28;21.83;;;;;;;;;;5091700;28;20105;-79
2024/01/12 04:58:10;;;;;;;39.50;19.35;;;;;;;;;;5084781;28;20028;-79
2024/01/12 05:00:55;;;;;;;34.70;18.63;;;;;;;;;;5077990;28;20043;-78
2024/01/12 05:03:43;;;;;;;45.78;21.75;;;;;;;;;;5083086;28;20039;-79
2024/01/12 05:06:29;;;;;;;39.05;19.52;;;;;;;;;;5083776;28;20024;-79
2024/01/12 05:09:16;;;;;;;42.25;21.15;;;;;;;;;;5089395;28;20357;-77
2024/01/12 05:12:04;;;;;;;39.38;19.65;;;;;;;;;;5089971;28;20032;-79
2024/01/12 05:14:49;;;;;;;35.10;19.17;;;;;;;;;;5078725;28;20567;-79
2024/01/12 05:17:35;;;;;;;40.85;22.98;;;;;;;;;;5076999;27;20054;-78
2024/01/12 05:20:21;;;;;;;36.88;19.02;;;;;;;;;;5081893;28;20036;-78
2024/01/12 05:23:06;;;;;;;40.95;19.48;;;;;;;;;;5084832;28;20391;-77
2024/01/12 05:25:51;;;;;;;41.63;20.13;;;;;;;;;;5090253;28;20120;-77
2024/01/12 05:28:37;;;;;;;43.20;20.45;;;;;;;;;;5077367;28;20055;-78
2024/01/12 05:31:22;;;;;;;45.70;22.33;;;;;;;;;;5090318;28;20027;-80
2024/01/12 05:34:07;;;;;;;46.97;20.65;;;;;;;;;;5099622;28;20118;-79
2024/01/12 05:36:52;;;;;;;35.25;20.23;;;;;;;;;;5074168;28;20028;-79
2024/01/12 05:39:38;;;;;;;40.35;20.70;;;;;;;;;;5072544;28;20030;-79
2024/01/12 05:42:23;;;;;;;41.28;20.33;;;;;;;;;;5089380;28;20070;-79
2024/01/12 05:45:08;;;;;;;37.53;19.25;;;;;;;;;;5085362;28;20402;-78
2024/01/12 05:47:53;;;;;;;42.35;21.38;;;;;;;;;;5076197;28;20390;-79
2024/01/12 05:50:39;;;;;;;43.92;20.80;;;;;;;;;;5088488;28;20028;-79
2024/01/12 05:53:25;;;;;;;44.03;22.33;;;;;;;;;;5090710;28;20034;-78
2024/01/12 05:56:11;;;;;;;39.58;19.95;;;;;;;;;;5081756;28;20238;-79
2024/01/12 05:58:56;;;;;;;38.33;19.95;;;;;;;;;;5076657;28;20055;-79
2024/01/12 06:01:42;;;;;;;40.63;20.65;;;;;;;;;;5098383;28;20040;-78
2024/01/12 06:04:27;;;;;;;44.50;21.10;;;;;;;;;;5077936;28;20080;-78
2024/01/12 06:07:13;;;;;;;40.97;22.35;;;;;;;;;;5084744;28;20027;-81
2024/01/12 06:09:58;;;;;;;38.15;20.25;;;;;;;;;;5087705;28;20416;-81
2024/01/12 06:12:44;;;;;;;40.50;19.77;;;;;;;;;;5091708;28;20023;-80
2024/01/12 06:15:29;;;;;;;40.67;21.02;;;;;;;;;;5095259;28;20122;-81
2024/01/12 06:18:14;;;;;;;40.42;21.00;;;;;;;;;;5082357;28;20581;-81
2024/01/12 06:20:59;;;;;;;46.42;22.38;;;;;;;;;;5078927;28;20066;-80
2024/01/12 06:23:45;;;;;;;45.90;20.00;;;;;;;;;;5079767;28;20059;-80
2024/01/12 06:26:30;;;;;;;37.47;17.90;;;;;;;;;;5084626;28;20031;-79
2024/01/12 06:29:16;;;;;;;42.13;22.08;;;;;;;;;;5080402;28;20391;-79
2024/01/12 06:32:03;;;;;;;37.97;19.35;;;;;;;;;;5082212;28;20098;-79
2024/01/12 06:34:48;;;;;;;37.05;19.65;;;;;;;;;;5090534;28;20118;-79
2024/01/12 06:37:33;;;;;;;39.25;19.85;;;;;;;;;;5083710;28;20484;-79
2024/01/12 06:40:19;;;;;;;40.90;20.33;;;;;;;;;;5078590;28;20427;-80
2024/01/12 06:43:04;;;;;;;46.53;20.33;;;;;;;;;;5081804;28;20047;-81
2024/01/12 06:45:49;;;;;;;39.58;18.95;;;;;;;;;;5082411;28;20529;-83
2024/01/12 06:48:35;;;;;;;37.38;19.08;;;;;;;;;;5079373;28;20114;-80
2024/01/12 06:51:23;;;;;;;39.00;20.58;;;;;;;;;;5079643;28;20032;-83
2024/01/12 06:54:09;;;;;;;35.15;20.27;;;;;;;;;;5087296;28;20025;-83
2024/01/12 06:56:56;;;;;;;36.97;19.27;;;;;;;;;;5087119;28;20123;-83
2024/01/12 06:59:41;;;;;;;37.95;18.98;;;;;;;;;;5081392;28;20048;-76
2024/01/12 07:02:26;;;;;;;45.30;20.70;;;;;;;;;;5082941;28;20047;-82
2024/01/12 07:05:13;;;;;;;43.47;21.50;;;;;;;;;;5070810;28;20031;-82
2024/01/12 07:07:58;;;;;;;42.38;20.08;;;;;;;;;;5086684;28;20102;-81
2024/01/12 07:10:43;;;;;;;35.55;19.10;;;;;;;;;;5081451;28;20596;-81
2024/01/12 07:13:28;;;;;;;41.25;21.60;;;;;;;;;;5086186;28;20038;-83
2024/01/12 07:16:14;;;;;;;44.03;20.45;;;;;;;;;;5081717;28;20386;-79
2024/01/12 07:18:59;;;;;;;50.35;23.98;;;;;;;;;;5085102;28;20400;-80
2024/01/12 07:21:44;;;;;;;39.30;19.02;;;;;;;;;;5085891;28;20031;-81
2024/01/12 07:24:29;;;;;;;44.25;21.90;;;;;;;;;;5084689;28;20063;-80
2024/01/12 07:27:15;;;;;;;40.78;20.27;;;;;;;;;;5085998;28;20031;-79
2024/01/12 07:30:00;;;;;;;48.45;22.20;;;;;;;;;;5080738;28;20253;-80
2024/01/12 07:32:45;;;;;;;43.00;18.58;;;;;;;;;;5079222;28;20038;-79
2024/01/12 07:35:30;;;;;;;43.25;20.75;;;;;;;;;;5090362;28;20037;-80
2024/01/12 07:38:15;;;;;;;44.20;20.67;;;;;;;;;;5080060;28;20518;-81
2024/01/12 07:41:01;;;;;;;44.67;20.75;;;;;;;;;;5089056;28;20496;-79
2024/01/12 07:43:46;;;;;;;47.25;21.95;;;;;;;;;;5076902;28;20375;-78
2024/01/12 07:46:31;;;;;;;43.85;21.60;;;;;;;;;;5086938;28;20023;-81
2024/01/12 07:49:16;;;;;;;42.53;20.52;;;;;;;;;;5082325;28;20176;-79
2024/01/12 07:52:01;;;;;;;42.60;20.27;;;;;;;;;;5105205;28;20015;-80
2024/01/12 07:54:47;;;;;;;50.05;22.50;;;;;;;;;;5086757;28;20665;-80
2024/01/12 07:57:32;;;;;;;41.95;22.83;;;;;;;;;;5085531;28;20537;-82
2024/01/12 08:00:17;;;;;;;44.15;21.35;;;;;;;;;;5071321;28;20083;-79
2024/01/12 08:03:02;;;;;;;37.72;22.02;;;;;;;;;;5088227;28;20149;-79
2024/01/12 08:05:48;;;;;;;45.78;23.50;;;;;;;;;;5084301;28;20027;-81
2024/01/12 08:08:33;;;;;;;48.72;23.13;;;;;;;;;;5088562;28;20015;-82
2024/01/12 08:11:18;;;;;;;50.15;25.50;;;;;;;;;;5079879;28;20301;-81
2024/01/12 08:14:04;;;;;;;44.47;20.73;;;;;;;;;;5075721;28;20050;-79
2024/01/12 08:16:49;;;;;;;40.60;20.48;;;;;;;;;;5088075;28;20032;-80
2024/01/12 08:19:34;;;;;;;40.42;20.58;;;;;;;;;;5066992;28;20040;-80
2024/01/12 08:22:20;;;;;;;41.85;20.73;;;;;;;;;;5082368;28;20361;-79
2024/01/12 08:25:05;;;;;;;48.05;20.77;;;;;;;;;;5086336;28;20096;-78
2024/01/12 08:27:50;;;;;;;45.15;22.15;;;;;;;;;;5071078;28;20474;-78
2024/01/12 08:30:36;;;;;;;44.70;24.58;;;;;;;;;;5095245;28;20031;-78
2024/01/12 08:33:21;;;;;;;42.05;22.63;;;;;;;;;;5076472;28;20042;-79
2024/01/12 08:36:06;;;;;;;44.13;24.15;;;;;;;;;;5099972;28;20729;-79
2024/01/12 08:38:52;;;;;;;43.90;23.88;;;;;;;;;;5076190;28;20032;-78
2024/01/12 08:41:37;;;;;;;51.03;25.02;;;;;;;;;;5084509;28;20034;-79
2024/01/12 08:44:22;;;;;;;51.58;23.00;;;;;;;;;;5080851;28;20027;-79
2024/01/12 08:47:07;;;;;;;48.83;25.15;;;;;;;;;;5084804;28;20586;-78
2024/01/12 08:49:52;;;;;;;51.50;26.08;;;;;;;;;;5061510;28;20036;-79
2024/01/12 08:52:37;;;;;;;45.70;23.33;;;;;;;;;;5079003;28;20035;-78
2024/01/12 08:55:23;;;;;;;52.22;26.88;;;;;;;;;;5097722;28;20128;-79
2024/01/12 08:58:09;;;;;;;45.35;25.00;;;;;;;;;;5084951;28;20392;-80
2024/01/12 09:00:53;;;;;;;49.00;26.45;;;;;;;;;;5091957;27;20211;-81
2024/01/12 09:03:39;;;;;;;49.88;25.70;;;;;;;;;;5049453;28;20040;-78
2024/01/12 09:06:24;;;;;;;56.92;25.23;;;;;;;;;;5066745;28;20032;-79
2024/01/12 09:09:09;;;;;;;51.88;27.48;;;;;;;;;;5066539;28;20012;-79
2024/01/12 09:11:55;;;;;;;53.55;27.58;;;;;;;;;;5044567;28;20082;-81
2024/01/12 09:14:40;;;;;;;53.85;28.77;;;;;;;;;;5046981;28;20364;-82
2024/01/12 09:17:25;;;;;;;57.70;28.42;;;;;;;;;;5054585;28;20056;-80
2024/01/12 09:20:10;;;;;;;49.90;26.23;;;;;;;;;;5053747;28;20040;-81
2024/01/12 09:22:56;;;;;;;54.60;28.27;;;;;;;;;;5050112;28;20079;-83
2024/01/12 09:25:41;;;;;;;62.03;30.35;;;;;;;;;;5053610;28;20042;-80
2024/01/12 09:28:26;;;;;;;62.22;31.10;;;;;;;;;;5051464;28;20024;-81
2024/01/12 09:31:11;;;;;;;64.90;33.88;;;;;;;;;;5043782;28;20445;-80
2024/01/12 09:33:58;;;;;;;59.05;29.52;;;;;;;;;;5052809;28;20089;-80
2024/01/12 09:36:43;;;;;;;61.05;32.17;;;;;;;;;;5054666;28;20035;-79
2024/01/12 09:39:28;;;;;;;62.20;35.97;;;;;;;;;;5048902;28;20029;-79
2024/01/12 09:42:14;;;;;;;73.20;34.08;;;;;;;;;;5049994;28;20035;-78
2024/01/12 09:45:00;;;;;;;59.38;31.90;;;;;;;;;;5053308;28;20028;-84
2024/01/12 09:47:45;;;;;;;63.00;32.35;;;;;;;;;;5050584;28;20033;-81
2024/01/12 09:50:31;;;;;;;66.18;31.10;;;;;;;;;;5032893;28;20078;-79
2024/01/12 09:53:16;;;;;;;68.78;37.40;;;;;;;;;;5051467;28;20059;-80
2024/01/12 09:56:01;;;;;;;59.30;30.88;;;;;;;;;;5046899;28;20502;-79
2024/01/12 09:58:47;;;;;;;64.60;33.30;;;;;;;;;;5047253;28;20045;-80
2024/01/12 10:01:32;;;;;;;63.55;34.13;;;;;;;;;;5036427;28;20029;-79
2024/01/12 10:04:17;;;;;;;63.88;33.65;;;;;;;;;;5030241;28;20427;-79
2024/01/12 10:07:03;;;;;;;73.68;38.50;;;;;;;;;;5031404;28;20025;-76
2024/01/12 10:09:51;;;;;;;70.55;34.20;;;;;;;;;;5031093;28;20090;-79
2024/01/12 10:12:36;;;;;;;64.70;33.78;;;;;;;;;;5014958;28;20120;-79
2024/01/12 10:15:22;;;;;;;76.13;35.13;;;;;;;;;;5019974;28;20048;-80
2024/01/12 10:18:07;;;;;;;69.88;33.70;;;;;;;;;;5018449;28;20025;-81
2024/01/12 10:20:52;;;;;;;63.55;32.72;;;;;;;;;;5018606;28;20054;-80
2024/01/12 10:23:38;;;;;;;71.40;36.58;;;;;;;;;;5022171;28;20124;-80
2024/01/12 10:26:23;;;;;;;62.65;34.47;;;;;;;;;;5015502;28;20033;-80
2024/01/12 10:29:08;;;;;;;62.25;35.22;;;;;;;;;;5018918;28;20558;-80
2024/01/12 10:31:53;;;;;;;61.28;33.63;;;;;;;;;;5019338;28;20136;-81
2024/01/12 10:34:39;;;;;;;66.03;32.30;;;;;;;;;;5013165;28;20032;-81
2024/01/12 10:37:24;;;;;;;66.60;34.95;;;;;;;;;;5024431;28;20045;-81
2024/01/12 10:40:11;;;;;;;65.20;35.47;;;;;;;;;;5024274;28;20033;-83
2024/01/12 10:42:57;;;;;;;71.05;34.60;;;;;;;;;;5017961;28;20036;-82
2024/01/12 10:45:47;;;;;;;68.65;36.05;;;;;;;;;;4997763;28;20544;-80
2024/01/12 10:48:34;;;;;;;64.28;34.70;;;;;;;;;;4980034;28;20037;-80
2024/01/12 10:51:21;;;;;;;65.20;32.72;;;;;;;;;;5005423;28;20022;-79
2024/01/12 10:54:13;;;;;;;64.68;35.20;;;;;;;;;;5019359;28;20036;-79
2024/01/12 10:56:58;;;;;;;66.95;37.50;;;;;;;;;;5035152;28;20029;-79
2024/01/12 10:59:44;;;;;;;64.78;35.00;;;;;;;;;;5029282;28;20044;-80
2024/01/12 11:02:30;;;;;;;58.83;33.08;;;;;;;;;;5048089;28;20021;-81
2024/01/12 11:05:15;;;;;;;63.85;34.22;;;;;;;;;;5050505;28;20501;-78
2024/01/12 11:08:02;;;;;;;66.07;35.60;;;;;;;;;;5058903;28;20112;-85
2024/01/12 11:10:53;;;;;;;61.15;32.53;;;;;;;;;;5049287;28;20064;-86
2024/01/12 11:13:39;;;;;;;59.38;33.33;;;;;;;;;;5047116;28;20048;-83
2024/01/12 11:16:24;;;;;;;62.85;33.13;;;;;;;;;;5054871;28;20635;-83
2024/01/12 11:19:15;;;;;;;61.92;32.92;;;;;;;;;;5060027;28;20033;-86
2024/01/12 11:22:02;;;;;;;62.28;32.65;;;;;;;;;;5051324;28;20021;-85
2024/01/12 11:24:47;;;;;;;56.70;31.70;;;;;;;;;;5047820;28;20044;-83
2024/01/12 11:27:40;;;;;;;59.92;31.67;;;;;;;;;;5036987;28;20060;-85
2024/01/12 11:30:25;;;;;;;60.15;34.83;;;;;;;;;;5032470;28;20027;-86
2024/01/12 11:33:15;;;;;;;52.40;29.90;;;;;;;;;;5045754;28;20368;-85
2024/01/12 11:36:01;;;;;;;59.00;31.33;;;;;;;;;;5053071;28;20028;-85
2024/01/12 11:38:48;;;;;;;53.72;30.10;;;;;;;;;;5049120;28;20035;-83
2024/01/12 11:41:33;;;;;;;56.47;32.55;;;;;;;;;;5047815;28;20017;-82
2024/01/12 11:44:18;;;;;;;57.97;29.63;;;;;;;;;;5046469;28;20082;-82
2024/01/12 11:47:07;;;;;;;57.55;29.55;;;;;;;;;;5047157;28;20020;-83
2024/01/12 11:49:53;;;;;;;51.42;28.92;;;;;;;;;;5049535;28;20110;-84
2024/01/12 11:52:38;;;;;;;54.30;30.20;;;;;;;;;;5060937;28;20096;-84
2024/01/12 11:55:24;;;;;;;55.20;31.00;;;;;;;;;;5058137;28;20017;-84
2024/01/12 11:58:09;;;;;;;48.05;29.42;;;;;;;;;;5068337;28;20040;-84
2024/01/12 12:00:53;;;;;;;57.75;31.63;;;;;;;;;;5078152;28;20039;-82
2024/01/12 12:03:38;;;;;;;51.67;29.25;;;;;;;;;;5084809;28;20016;-81
2024/01/12 12:06:24;;;;;;;56.50;30.92;;;;;;;;;;5048587;28;20159;-82
2024/01/12 12:09:09;;;;;;;51.22;29.17;;;;;;;;;;5036756;28;20035;-81
2024/01/12 12:11:54;;;;;;;55.10;29.10;;;;;;;;;;5050694;28;20024;-80
2024/01/12 12:14:54;;;;;;;49.95;27.55;;;;;;;;;;5045119;28;20064;-81
2024/01/12 12:17:45;;;;;;;50.20;27.95;;;;;;;;;;5046160;28;20036;-80
2024/01/12 12:20:31;;;;;;;54.88;32.42;;;;;;;;;;5047705;28;20475;-82
2024/01/12 12:23:16;;;;;;;52.60;29.50;;;;;;;;;;5049982;28;20114;-83
2024/01/12 12:26:01;;;;;;;54.03;29.75;;;;;;;;;;5044691;28;20357;-84
2024/01/12 12:28:47;;;;;;;46.15;29.13;;;;;;;;;;5040576;28;20040;-82
2024/01/12 12:31:38;;;;;;;53.95;29.40;;;;;;;;;;5045921;28;20048;-84
2024/01/12 12:34:23;;;;;;;55.70;31.15;;;;;;;;;;5047379;28;20032;-82
2024/01/12 12:37:13;;;;;;;54.60;30.17;;;;;;;;;;5050102;28;20024;-82
2024/01/12 12:39:58;;;;;;;59.60;32.88;;;;;;;;;;5048280;28;20368;-80
2024/01/12 12:42:44;;;;;;;56.83;30.15;;;;;;;;;;5053698;28;20040;-82
2024/01/12 12:45:29;;;;;;;53.05;30.92;;;;;;;;;;5048514;28;20032;-81
2024/01/12 12:48:15;;;;;;;52.40;30.88;;;;;;;;;;5056638;28;20562;-80
2024/01/12 12:51:00;;;;;;;57.22;31.80;;;;;;;;;;5051799;28;20024;-81
2024/01/12 12:53:45;;;;;;;52.13;29.60;;;;;;;;;;5054661;28;20075;-84
2024/01/12 12:56:33;;;;;;;55.67;31.33;;;;;;;;;;5058233;28;20020;-83
2024/01/12 12:59:19;;;;;;;51.47;29.30;;;;;;;;;;5052644;28;20044;-82
2024/01/12 13:02:05;;;;;;;51.58;28.73;;;;;;;;;;5053068;28;20426;-83
2024/01/12 13:04:52;;;;;;;54.35;31.40;;;;;;;;;;5049314;28;20047;-83
2024/01/12 13:07:37;;;;;;;50.92;29.23;;;;;;;;;;5050139;28;20086;-83
2024/01/12 13:10:23;;;;;;;54.08;30.65;;;;;;;;;;5034974;28;20037;-82
2024/01/12 13:13:08;;;;;;;51.60;30.27;;;;;;;;;;5050557;28;20452;-81
2024/01/12 13:15:53;;;;;;;54.45;30.92;;;;;;;;;;5050330;28;20038;-85
2024/01/12 13:18:38;;;;;;;54.67;30.10;;;;;;;;;;5032414;28;20178;-82
2024/01/12 13:21:23;;;;;;;54.92;33.22;;;;;;;;;;5047481;28;20475;-83
2024/01/12 13:24:09;;;;;;;56.30;31.88;;;;;;;;;;5049946;28;21113;-83
2024/01/12 13:26:54;;;;;;;67.43;32.42;;;;;;;;;;5053502;28;20103;-82
2024/01/12 13:29:39;;;;;;;57.22;29.95;;;;;;;;;;5043980;28;20476;-83
2024/01/12 13:32:25;;;;;;;57.38;30.10;;;;;;;;;;5060368;28;20089;-81
2024/01/12 13:35:10;;;;;;;47.58;28.60;;;;;;;;;;5043257;28;20108;-81
2024/01/12 13:37:55;;;;;;;53.05;29.65;;;;;;;;;;5038729;28;20774;-82
2024/01/12 13:40:41;;;;;;;58.80;30.67;;;;;;;;;;5049032;28;20025;-80
2024/01/12 13:43:26;;;;;;;55.67;30.40;;;;;;;;;;5057631;28;20025;-82
2024/01/12 13:46:13;;;;;;;54.35;31.13;;;;;;;;;;5048378;28;20021;-81
2024/01/12 13:48:59;;;;;;;52.58;30.88;;;;;;;;;;5052660;28;20028;-81
2024/01/12 13:51:45;;;;;;;53.33;31.23;;;;;;;;;;5054009;28;20039;-81
2024/01/12 13:54:30;;;;;;;57.70;31.92;;;;;;;;;;5055926;28;20107;-83
2024/01/12 13:57:15;;;;;;;51.58;28.40;;;;;;;;;;5059513;28;20041;-81
2024/01/12 14:00:00;;;;;;;50.97;29.15;;;;;;;;;;5063692;28;20040;-82
2024/01/12 14:02:47;;;;;;;53.10;30.13;;;;;;;;;;5068168;28;20041;-82
2024/01/12 14:05:32;;;;;;;52.67;30.67;;;;;;;;;;5046926;28;20029;-82
2024/01/12 14:08:18;;;;;;;51.45;28.20;;;;;;;;;;5047263;28;20021;-82
2024/01/12 14:11:03;;;;;;;52.17;27.48;;;;;;;;;;5054749;28;20108;-83
2024/01/12 14:13:48;;;;;;;57.47;29.63;;;;;;;;;;5059381;28;20033;-83
2024/01/12 14:16:34;;;;;;;50.80;29.05;;;;;;;;;;5050068;28;20037;-80
2024/01/12 14:19:19;;;;;;;52.97;27.35;;;;;;;;;;5052550;28;20219;-83
2024/01/12 14:22:04;;;;;;;49.75;27.55;;;;;;;;;;5052709;28;20087;-82
2024/01/12 14:24:52;;;;;;;51.85;27.38;;;;;;;;;;5047470;28;20567;-83
2024/01/12 14:27:37;;;;;;;50.42;27.02;;;;;;;;;;5043655;28;20025;-83
2024/01/12 14:30:23;;;;;;;54.15;28.75;;;;;;;;;;5045181;28;20076;-83
2024/01/12 14:33:08;;;;;;;52.28;28.92;;;;;;;;;;5059308;28;20086;-84
2024/01/12 14:35:54;;;;;;;52.75;28.85;;;;;;;;;;5062209;28;20032;-84
2024/01/12 14:38:39;;;;;;;55.90;30.05;;;;;;;;;;5059763;28;20032;-83
2024/01/12 14:41:24;;;;;;;51.88;28.40;;;;;;;;;;5050738;28;20024;-83
2024/01/12 14:44:10;;;;;;;58.05;31.60;;;;;;;;;;5047223;28;20028;-83
2024/01/12 14:46:55;;;;;;;53.20;28.52;;;;;;;;;;5049542;28;20024;-83
2024/01/12 14:49:41;;;;;;;48.28;27.40;;;;;;;;;;5045465;28;20036;-83
2024/01/12 14:52:26;;;;;;;51.72;28.25;;;;;;;;;;5049856;28;20056;-82
2024/01/12 14:55:12;;;;;;;52.83;27.58;;;;;;;;;;5058170;28;20032;-83
2024/01/12 14:57:57;;;;;;;53.22;28.58;;;;;;;;;;5056139;28;20631;-83
2024/01/12 15:00:42;;;;;;;49.38;25.92;;;;;;;;;;5049957;28;20057;-80
2024/01/12 15:03:27;;;;;;;47.92;26.02;;;;;;;;;;5052151;28;20031;-85
2024/01/12 15:06:13;;;;;;;52.80;27.55;;;;;;;;;;5048547;28;20467;-84
2024/01/12 15:08:58;;;;;;;48.28;27.52;;;;;;;;;;5051894;28;20380;-80
2024/01/12 15:11:46;;;;;;;50.92;27.63;;;;;;;;;;5052515;28;20074;-82
2024/01/12 15:14:31;;;;;;;58.35;29.05;;;;;;;;;;5049800;28;20048;-82
2024/01/12 15:17:17;;;;;;;53.42;26.83;;;;;;;;;;5049569;28;20029;-80
2024/01/12 15:20:04;;;;;;;52.90;25.60;;;;;;;;;;5033823;28;20060;-81
2024/01/12 15:22:49;;;;;;;58.38;27.20;;;;;;;;;;5055442;28;20047;-84
2024/01/12 15:25:35;;;;;;;56.22;27.00;;;;;;;;;;5032286;28;20029;-83
2024/01/12 15:28:20;;;;;;;48.40;25.60;;;;;;;;;;5046808;28;20372;-84
2024/01/12 15:31:05;;;;;;;51.80;26.80;;;;;;;;;;5051602;28;20084;-83
2024/01/12 15:33:51;;;;;;;49.90;26.75;;;;;;;;;;5050212;28;20044;-83
2024/01/12 15:36:36;;;;;;;50.85;27.17;;;;;;;;;;5046005;28;20124;-86
2024/01/12 15:39:21;;;;;;;49.00;24.60;;;;;;;;;;5053513;28;20033;-84
2024/01/12 15:42:06;;;;;;;55.25;28.85;;;;;;;;;;5050975;28;20397;-83
2024/01/12 15:44:52;;;;;;;47.78;26.42;;;;;;;;;;5049395;28;20037;-86
2024/01/12 15:47:37;;;;;;;52.78;28.52;;;;;;;;;;5046784;28;20465;-83
2024/01/12 15:50:22;;;;;;;49.03;27.08;;;;;;;;;;5042710;28;20037;-83
2024/01/12 15:53:08;;;;;;;45.03;25.48;;;;;;;;;;5055710;28;20027;-85
2024/01/12 15:55:53;;;;;;;54.55;28.33;;;;;;;;;;5052935;28;20029;-85
2024/01/12 15:58:38;;;;;;;51.33;27.48;;;;;;;;;;5048882;28;20086;-85
2024/01/12 16:01:24;;;;;;;60.83;29.08;;;;;;;;;;5017974;28;20104;-85